AAL1015 YSSY-KLAX
Flight info
| Callsign | AAL1015 |
|---|---|
| Flight time | N/A |
| Altitude | 31000 |
| Route | SY3/16R 3357S15111E NOBAR A579 PUPEX/N0499F330 A579 NN B581 WACOS/N0488F350 B581 BALKS/N0477F370 B581 FICKY GOATZ2 |
| Aircraft | B77W/H-SDE1E2E3FGHIJ2J3J4J5M1RWXY/LB1D1 |
Departure
| Time | 2026-04-20 03:15 |
|---|---|
| Airport | Sydney Kingsford Smith International Airport (YSSY) |
Arrival
| Time | N/A |
|---|---|
| Airport | Los Angeles International Airport (KLAX) |
| Time | Latitude | Longitude | Altitude | Speed | Heading |
|---|---|---|---|---|---|
| 2026-04-20 02:24 | -33.93830 | 151.16834 | 35 ft | 0 kts | 74° |
| 2026-04-20 03:00 | -33.93834 | 151.16817 | 34 ft | 2 kts | 74° |
| 2026-04-20 03:00 | -33.93838 | 151.16800 | 33 ft | 2 kts | 74° |
| 2026-04-20 03:00 | -33.93842 | 151.16782 | 33 ft | 2 kts | 74° |
| 2026-04-20 03:01 | -33.93846 | 151.16765 | 33 ft | 2 kts | 84° |
| 2026-04-20 03:01 | -33.93843 | 151.16746 | 32 ft | 2 kts | 127° |
| 2026-04-20 03:01 | -33.93832 | 151.16736 | 32 ft | 2 kts | 163° |
| 2026-04-20 03:01 | -33.93823 | 151.16733 | 32 ft | 0 kts | 170° |
| 2026-04-20 03:06 | -33.93823 | 151.16734 | 32 ft | 0 kts | 170° |
| 2026-04-20 03:06 | -33.93841 | 151.16739 | 32 ft | 4 kts | 163° |
| 2026-04-20 03:06 | -33.93893 | 151.16757 | 32 ft | 10 kts | 164° |
| 2026-04-20 03:06 | -33.93972 | 151.16786 | 31 ft | 11 kts | 164° |
| 2026-04-20 03:07 | -33.94040 | 151.16818 | 30 ft | 9 kts | 140° |
| 2026-04-20 03:07 | -33.94051 | 151.16884 | 30 ft | 7 kts | 76° |
| 2026-04-20 03:07 | -33.94038 | 151.16940 | 30 ft | 6 kts | 74° |
| 2026-04-20 03:07 | -33.94024 | 151.17001 | 31 ft | 8 kts | 75° |
| 2026-04-20 03:08 | -33.94006 | 151.17078 | 29 ft | 11 kts | 73° |
| 2026-04-20 03:08 | -33.93980 | 151.17178 | 27 ft | 13 kts | 62° |
| 2026-04-20 03:08 | -33.93885 | 151.17203 | 24 ft | 16 kts | 346° |
| 2026-04-20 03:08 | -33.93777 | 151.17174 | 24 ft | 14 kts | 348° |
| 2026-04-20 03:09 | -33.93689 | 151.17151 | 25 ft | 11 kts | 348° |
| 2026-04-20 03:09 | -33.93611 | 151.17131 | 26 ft | 12 kts | 348° |
| 2026-04-20 03:09 | -33.93522 | 151.17108 | 28 ft | 13 kts | 348° |
| 2026-04-20 03:09 | -33.93423 | 151.17082 | 29 ft | 15 kts | 348° |
| 2026-04-20 03:10 | -33.93322 | 151.17038 | 30 ft | 14 kts | 320° |
| 2026-04-20 03:10 | -33.93248 | 151.16966 | 31 ft | 13 kts | 335° |
| 2026-04-20 03:10 | -33.93161 | 151.16939 | 31 ft | 12 kts | 347° |
| 2026-04-20 03:10 | -33.93086 | 151.16917 | 31 ft | 10 kts | 347° |
| 2026-04-20 03:11 | -33.93024 | 151.16901 | 31 ft | 7 kts | 351° |
| 2026-04-20 03:11 | -33.92989 | 151.16931 | 31 ft | 6 kts | 66° |
| 2026-04-20 03:11 | -33.92979 | 151.16977 | 31 ft | 5 kts | 77° |
| 2026-04-20 03:11 | -33.92974 | 151.17003 | 30 ft | 0 kts | 78° |
| 2026-04-20 03:12 | -33.92973 | 151.17006 | 30 ft | 1 kts | 78° |
| 2026-04-20 03:12 | -33.92966 | 151.17047 | 30 ft | 8 kts | 78° |
| 2026-04-20 03:12 | -33.92952 | 151.17127 | 29 ft | 9 kts | 78° |
| 2026-04-20 03:13 | -33.92952 | 151.17158 | 29 ft | 1 kts | 134° |
| 2026-04-20 03:13 | -33.92961 | 151.17165 | 29 ft | 3 kts | 156° |
| 2026-04-20 03:13 | -33.92983 | 151.17172 | 30 ft | 0 kts | 168° |
| 2026-04-20 03:13 | -33.92986 | 151.17172 | 30 ft | 2 kts | 168° |
| 2026-04-20 03:14 | -33.93083 | 151.17197 | 30 ft | 42 kts | 168° |
| 2026-04-20 03:14 | -33.93615 | 151.17335 | 19 ft | 112 kts | 168° |
| 2026-04-20 03:14 | -33.94591 | 151.17587 | 30 ft | 171 kts | 168° |
| 2026-04-20 03:14 | -33.95856 | 151.17914 | 497 ft | 189 kts | 169° |
| 2026-04-20 03:15 | -33.97128 | 151.18068 | 1428 ft | 183 kts | 182° |
| 2026-04-20 03:15 | -33.98445 | 151.17946 | 1724 ft | 197 kts | 184° |
| 2026-04-20 03:15 | -33.99874 | 151.17796 | 1928 ft | 217 kts | 184° |
| 2026-04-20 03:15 | -34.01454 | 151.17630 | 2189 ft | 237 kts | 184° |
| 2026-04-20 03:16 | -34.03162 | 151.17693 | 2672 ft | 246 kts | 167° |
| 2026-04-20 03:16 | -34.04799 | 151.18198 | 3435 ft | 244 kts | 165° |
| 2026-04-20 03:16 | -34.06441 | 151.18751 | 4026 ft | 250 kts | 165° |
| 2026-04-20 03:16 | -34.08129 | 151.19319 | 4727 ft | 250 kts | 165° |
| 2026-04-20 03:17 | -34.09814 | 151.19882 | 5392 ft | 251 kts | 166° |
| 2026-04-20 03:17 | -34.11466 | 151.20433 | 6033 ft | 253 kts | 166° |
| 2026-04-20 03:17 | -34.13110 | 151.21001 | 6644 ft | 255 kts | 160° |
| 2026-04-20 03:17 | -34.14633 | 151.22090 | 7220 ft | 261 kts | 139° |
| 2026-04-20 03:18 | -34.15713 | 151.23843 | 7812 ft | 268 kts | 117° |
| 2026-04-20 03:18 | -34.16159 | 151.26057 | 8287 ft | 282 kts | 94° |
| 2026-04-20 03:18 | -34.15786 | 151.28436 | 8740 ft | 297 kts | 68° |
| 2026-04-20 03:18 | -34.14564 | 151.30458 | 9336 ft | 304 kts | 47° |
| 2026-04-20 03:19 | -34.13011 | 151.32217 | 9945 ft | 306 kts | 46° |
| 2026-04-20 03:19 | -34.11464 | 151.34006 | 10301 ft | 317 kts | 48° |
| 2026-04-20 03:19 | -34.09852 | 151.35945 | 10518 ft | 333 kts | 49° |
| 2026-04-20 03:19 | -34.08175 | 151.37993 | 10723 ft | 350 kts | 49° |
| 2026-04-20 03:20 | -34.06443 | 151.40115 | 10960 ft | 366 kts | 48° |
| 2026-04-20 03:20 | -34.04612 | 151.42357 | 11239 ft | 381 kts | 48° |
| 2026-04-20 03:20 | -34.02829 | 151.44540 | 11601 ft | 391 kts | 48° |
| 2026-04-20 03:20 | -34.00906 | 151.46890 | 12252 ft | 394 kts | 48° |
| 2026-04-20 03:21 | -33.98993 | 151.49226 | 12922 ft | 396 kts | 48° |
| 2026-04-20 03:21 | -33.97060 | 151.51587 | 13521 ft | 400 kts | 48° |
| 2026-04-20 03:21 | -33.95071 | 151.54015 | 14057 ft | 406 kts | 48° |
| 2026-04-20 03:21 | -33.93108 | 151.56409 | 14642 ft | 409 kts | 48° |
| 2026-04-20 03:22 | -33.91081 | 151.58879 | 15234 ft | 413 kts | 48° |
| 2026-04-20 03:22 | -33.89068 | 151.61331 | 15792 ft | 416 kts | 48° |
| 2026-04-20 03:22 | -33.87040 | 151.63798 | 16334 ft | 420 kts | 48° |
| 2026-04-20 03:22 | -33.84953 | 151.66336 | 16849 ft | 425 kts | 47° |
| 2026-04-20 03:23 | -33.82873 | 151.68863 | 17405 ft | 427 kts | 47° |
| 2026-04-20 03:23 | -33.80777 | 151.71408 | 17994 ft | 430 kts | 47° |
| 2026-04-20 03:23 | -33.78815 | 151.74060 | 18455 ft | 431 kts | 56° |
| 2026-04-20 03:23 | -33.77191 | 151.77138 | 18867 ft | 433 kts | 64° |
| 2026-04-20 03:24 | -33.75751 | 151.80298 | 19377 ft | 436 kts | 65° |
| 2026-04-20 03:24 | -33.74306 | 151.83489 | 19945 ft | 437 kts | 65° |
| 2026-04-20 03:24 | -33.72850 | 151.86700 | 20438 ft | 440 kts | 65° |
| 2026-04-20 03:24 | -33.71368 | 151.89963 | 20873 ft | 444 kts | 65° |
| 2026-04-20 03:25 | -33.69872 | 151.93248 | 21335 ft | 448 kts | 65° |
| 2026-04-20 03:25 | -33.68384 | 151.96513 | 21779 ft | 451 kts | 65° |
| 2026-04-20 03:25 | -33.66875 | 151.99818 | 22216 ft | 454 kts | 65° |
| 2026-04-20 03:25 | -33.65352 | 152.03152 | 22659 ft | 457 kts | 65° |
| 2026-04-20 03:26 | -33.63826 | 152.06486 | 23119 ft | 459 kts | 65° |
| 2026-04-20 03:26 | -33.62270 | 152.09883 | 23480 ft | 463 kts | 65° |
| 2026-04-20 03:26 | -33.60713 | 152.13280 | 23851 ft | 467 kts | 65° |
| 2026-04-20 03:26 | -33.59163 | 152.16653 | 24230 ft | 470 kts | 65° |
| 2026-04-20 03:27 | -33.57581 | 152.20099 | 24653 ft | 472 kts | 65° |
| 2026-04-20 03:27 | -33.55989 | 152.23558 | 25052 ft | 474 kts | 65° |
| 2026-04-20 03:27 | -33.54408 | 152.26991 | 25421 ft | 477 kts | 65° |
| 2026-04-20 03:27 | -33.52787 | 152.30508 | 25802 ft | 479 kts | 65° |
| 2026-04-20 03:28 | -33.51171 | 152.34012 | 26159 ft | 482 kts | 65° |
| 2026-04-20 03:28 | -33.49545 | 152.37532 | 26517 ft | 485 kts | 65° |
| 2026-04-20 03:28 | -33.46277 | 152.44598 | 27185 ft | 491 kts | 65° |
| 2026-04-20 03:29 | -33.44600 | 152.48218 | 27517 ft | 494 kts | 65° |
| 2026-04-20 03:29 | -33.42939 | 152.51800 | 27902 ft | 496 kts | 65° |
| 2026-04-20 03:29 | -33.41269 | 152.55400 | 28245 ft | 499 kts | 65° |
| 2026-04-20 03:29 | -33.39568 | 152.59059 | 28526 ft | 502 kts | 65° |
| 2026-04-20 03:30 | -33.37868 | 152.62715 | 28884 ft | 504 kts | 65° |
| 2026-04-20 03:30 | -33.36148 | 152.66408 | 29277 ft | 506 kts | 64° |
| 2026-04-20 03:30 | -33.34408 | 152.70142 | 29697 ft | 506 kts | 64° |
| 2026-04-20 03:30 | -33.32675 | 152.73854 | 30172 ft | 505 kts | 64° |
| 2026-04-20 03:31 | -33.30956 | 152.77533 | 30677 ft | 503 kts | 64° |
| 2026-04-20 03:31 | -33.29211 | 152.81265 | 31109 ft | 503 kts | 65° |
| 2026-04-20 03:31 | -33.25784 | 152.88586 | 31199 ft | 505 kts | 64° |
| 2026-04-20 03:32 | -33.22310 | 152.95993 | 31212 ft | 513 kts | 64° |
| 2026-04-20 03:32 | -33.18834 | 153.03383 | 31207 ft | 509 kts | 64° |
| 2026-04-20 03:33 | -33.15356 | 153.10765 | 31203 ft | 511 kts | 64° |
| 2026-04-20 03:33 | -33.11877 | 153.18135 | 31205 ft | 511 kts | 64° |
| 2026-04-20 03:34 | -33.08395 | 153.25496 | 31208 ft | 510 kts | 64° |
| 2026-04-20 03:34 | -33.04899 | 153.32871 | 31198 ft | 509 kts | 64° |
| 2026-04-20 03:35 | -33.01419 | 153.40199 | 31204 ft | 510 kts | 64° |
| 2026-04-20 03:35 | -32.97907 | 153.47577 | 31201 ft | 509 kts | 64° |
| 2026-04-20 03:36 | -32.94421 | 153.54887 | 31191 ft | 510 kts | 64° |
| 2026-04-20 03:36 | -32.90907 | 153.62241 | 31200 ft | 511 kts | 64° |
| 2026-04-20 03:37 | -32.87403 | 153.69557 | 31175 ft | 509 kts | 63° |
| 2026-04-20 03:37 | -32.83903 | 153.76854 | 31169 ft | 511 kts | 63° |
| 2026-04-20 03:38 | -32.80381 | 153.84180 | 31180 ft | 511 kts | 63° |
| 2026-04-20 03:38 | -32.76845 | 153.91521 | 31172 ft | 510 kts | 63° |
| 2026-04-20 03:39 | -32.73336 | 153.98791 | 31164 ft | 511 kts | 63° |
| 2026-04-20 03:39 | -32.69836 | 154.06029 | 31174 ft | 510 kts | 63° |
| 2026-04-20 03:40 | -32.66300 | 154.13325 | 31156 ft | 511 kts | 63° |
| 2026-04-20 03:40 | -32.62750 | 154.20638 | 31155 ft | 512 kts | 63° |
| 2026-04-20 03:41 | -32.59200 | 154.27933 | 31148 ft | 511 kts | 63° |
| 2026-04-20 03:41 | -32.55636 | 154.35245 | 31145 ft | 513 kts | 63° |
| 2026-04-20 03:42 | -32.52074 | 154.42539 | 31152 ft | 512 kts | 63° |
| 2026-04-20 03:42 | -32.48508 | 154.49826 | 31144 ft | 514 kts | 62° |
| 2026-04-20 03:43 | -32.44925 | 154.57130 | 31155 ft | 513 kts | 62° |
| 2026-04-20 03:43 | -32.41333 | 154.64442 | 31138 ft | 513 kts | 62° |
| 2026-04-20 03:44 | -32.37739 | 154.71741 | 31143 ft | 515 kts | 62° |
| 2026-04-20 03:44 | -32.34144 | 154.79027 | 31145 ft | 516 kts | 62° |
| 2026-04-20 03:45 | -32.30534 | 154.86330 | 31134 ft | 515 kts | 62° |
| 2026-04-20 03:45 | -32.26913 | 154.93639 | 31136 ft | 517 kts | 62° |
| 2026-04-20 03:46 | -32.23280 | 155.00960 | 31135 ft | 517 kts | 62° |
| 2026-04-20 03:46 | -32.19636 | 155.08285 | 31137 ft | 515 kts | 62° |
| 2026-04-20 03:47 | -32.16011 | 155.15562 | 31133 ft | 517 kts | 62° |
| 2026-04-20 03:47 | -32.12369 | 155.22856 | 31134 ft | 517 kts | 61° |
| 2026-04-20 03:48 | -32.08700 | 155.30193 | 31132 ft | 517 kts | 61° |
| 2026-04-20 03:48 | -32.05050 | 155.37474 | 31127 ft | 517 kts | 61° |
| 2026-04-20 03:49 | -32.01363 | 155.44817 | 31124 ft | 519 kts | 61° |
| 2026-04-20 03:49 | -31.97700 | 155.52097 | 31123 ft | 518 kts | 61° |
| 2026-04-20 03:50 | -31.94018 | 155.59401 | 31125 ft | 520 kts | 61° |
| 2026-04-20 03:50 | -31.90319 | 155.66725 | 31114 ft | 521 kts | 60° |
| 2026-04-20 03:51 | -31.86609 | 155.74056 | 31094 ft | 520 kts | 60° |
| 2026-04-20 03:51 | -31.82922 | 155.81326 | 31097 ft | 522 kts | 60° |
| 2026-04-20 03:52 | -31.79198 | 155.88658 | 31102 ft | 521 kts | 60° |
| 2026-04-20 03:52 | -31.75491 | 155.95940 | 31106 ft | 520 kts | 60° |
| 2026-04-20 03:53 | -31.71751 | 156.03275 | 31087 ft | 523 kts | 60° |
| 2026-04-20 03:53 | -31.67998 | 156.10619 | 31085 ft | 522 kts | 60° |
| 2026-04-20 03:54 | -31.64266 | 156.17909 | 31106 ft | 524 kts | 60° |
| 2026-04-20 03:54 | -31.60520 | 156.25211 | 31091 ft | 523 kts | 60° |
| 2026-04-20 03:55 | -31.56751 | 156.32546 | 31083 ft | 525 kts | 60° |
| 2026-04-20 03:55 | -31.52983 | 156.39862 | 31092 ft | 525 kts | 60° |
| 2026-04-20 03:56 | -31.49205 | 156.47186 | 31085 ft | 526 kts | 60° |
| 2026-04-20 03:56 | -31.45407 | 156.54533 | 31082 ft | 525 kts | 60° |
| 2026-04-20 03:57 | -31.41612 | 156.61862 | 31087 ft | 527 kts | 60° |
| 2026-04-20 03:57 | -31.37802 | 156.69205 | 31072 ft | 527 kts | 59° |
| 2026-04-20 03:58 | -31.33997 | 156.76523 | 31076 ft | 526 kts | 59° |
| 2026-04-20 03:58 | -31.30165 | 156.83881 | 31076 ft | 528 kts | 59° |
| 2026-04-20 03:59 | -31.26348 | 156.91196 | 31080 ft | 528 kts | 59° |
| 2026-04-20 03:59 | -31.22519 | 156.98520 | 31072 ft | 529 kts | 59° |
| 2026-04-20 04:00 | -31.18690 | 157.05829 | 31076 ft | 530 kts | 59° |
| 2026-04-20 04:00 | -31.14846 | 157.13155 | 31071 ft | 530 kts | 59° |
| 2026-04-20 04:01 | -31.11022 | 157.20425 | 31077 ft | 527 kts | 59° |
| 2026-04-20 04:01 | -31.07178 | 157.27724 | 31072 ft | 531 kts | 58° |
| 2026-04-20 04:02 | -31.03316 | 157.35042 | 31077 ft | 529 kts | 58° |
| 2026-04-20 04:02 | -30.99466 | 157.42322 | 31057 ft | 532 kts | 58° |
| 2026-04-20 04:03 | -30.95581 | 157.49652 | 31070 ft | 529 kts | 58° |
| 2026-04-20 04:03 | -30.91718 | 157.56928 | 31075 ft | 531 kts | 58° |
| 2026-04-20 04:04 | -30.87826 | 157.64243 | 31058 ft | 532 kts | 58° |
| 2026-04-20 04:04 | -30.83942 | 157.71532 | 31057 ft | 532 kts | 58° |
| 2026-04-20 04:05 | -30.80016 | 157.78885 | 31046 ft | 530 kts | 57° |
| 2026-04-20 04:05 | -30.76134 | 157.86140 | 31044 ft | 531 kts | 57° |
| 2026-04-20 04:06 | -30.72237 | 157.93411 | 31030 ft | 533 kts | 57° |
| 2026-04-20 04:06 | -30.68311 | 158.00725 | 31035 ft | 533 kts | 57° |
| 2026-04-20 04:07 | -30.64395 | 158.08003 | 31031 ft | 531 kts | 57° |
| 2026-04-20 04:07 | -30.60452 | 158.15320 | 31035 ft | 536 kts | 57° |
| 2026-04-20 04:08 | -30.56521 | 158.22600 | 31034 ft | 531 kts | 57° |
| 2026-04-20 04:08 | -30.52585 | 158.29877 | 31045 ft | 534 kts | 57° |
| 2026-04-20 04:09 | -30.48628 | 158.37180 | 31039 ft | 536 kts | 57° |
| 2026-04-20 04:09 | -30.44663 | 158.44481 | 31037 ft | 531 kts | 57° |
| 2026-04-20 04:10 | -30.40702 | 158.51764 | 31046 ft | 533 kts | 57° |
| 2026-04-20 04:10 | -30.36759 | 158.59001 | 31039 ft | 537 kts | 57° |
| 2026-04-20 04:11 | -30.32713 | 158.66411 | 31038 ft | 537 kts | 56° |
| 2026-04-20 04:11 | -30.28757 | 158.73647 | 31033 ft | 532 kts | 56° |
| 2026-04-20 04:12 | -30.24795 | 158.80876 | 31030 ft | 536 kts | 56° |
| 2026-04-20 04:12 | -30.20804 | 158.88147 | 31025 ft | 537 kts | 56° |
| 2026-04-20 04:13 | -30.16813 | 158.95406 | 31037 ft | 533 kts | 56° |
| 2026-04-20 04:13 | -30.12835 | 159.02626 | 31026 ft | 537 kts | 56° |
| 2026-04-20 04:14 | -30.08824 | 159.09892 | 31032 ft | 535 kts | 56° |
| 2026-04-20 04:14 | -30.04802 | 159.17168 | 31031 ft | 536 kts | 56° |
| 2026-04-20 04:15 | -30.00799 | 159.24396 | 31027 ft | 535 kts | 56° |
| 2026-04-20 04:15 | -29.96802 | 159.31598 | 31038 ft | 535 kts | 56° |
| 2026-04-20 04:16 | -29.92793 | 159.38812 | 31019 ft | 535 kts | 56° |
| 2026-04-20 04:16 | -29.88743 | 159.46083 | 31022 ft | 538 kts | 55° |
| 2026-04-20 04:17 | -29.84721 | 159.53294 | 31013 ft | 535 kts | 55° |
| 2026-04-20 04:17 | -29.80681 | 159.60522 | 31005 ft | 537 kts | 55° |
| 2026-04-20 04:18 | -29.76635 | 159.67749 | 31013 ft | 539 kts | 54° |
| 2026-04-20 04:18 | -29.72568 | 159.75003 | 30991 ft | 537 kts | 54° |
| 2026-04-20 04:19 | -29.68516 | 159.82213 | 31000 ft | 541 kts | 54° |
| 2026-04-20 04:19 | -29.64426 | 159.89481 | 30995 ft | 539 kts | 54° |
| 2026-04-20 04:20 | -29.60376 | 159.96663 | 31001 ft | 539 kts | 54° |
| 2026-04-20 04:20 | -29.56279 | 160.03917 | 31009 ft | 541 kts | 54° |
| 2026-04-20 04:21 | -29.52237 | 160.11061 | 30983 ft | 539 kts | 54° |
| 2026-04-20 04:21 | -29.48114 | 160.18332 | 31012 ft | 543 kts | 54° |
| 2026-04-20 04:22 | -29.44004 | 160.25572 | 30981 ft | 541 kts | 54° |
| 2026-04-20 04:22 | -29.39911 | 160.32767 | 30979 ft | 540 kts | 53° |
| 2026-04-20 04:23 | -29.35775 | 160.40024 | 30973 ft | 545 kts | 53° |
| 2026-04-20 04:23 | -29.31649 | 160.47253 | 30965 ft | 543 kts | 53° |
| 2026-04-20 04:24 | -29.27510 | 160.54492 | 30976 ft | 545 kts | 53° |
| 2026-04-20 04:24 | -29.23346 | 160.61760 | 30978 ft | 542 kts | 53° |
| 2026-04-20 04:25 | -29.19213 | 160.68964 | 30939 ft | 543 kts | 52° |
| 2026-04-20 04:25 | -29.15072 | 160.76166 | 30970 ft | 543 kts | 52° |
| 2026-04-20 04:26 | -29.10908 | 160.83397 | 30948 ft | 544 kts | 52° |
| 2026-04-20 04:26 | -29.06761 | 160.90587 | 30961 ft | 545 kts | 52° |
| 2026-04-20 04:27 | -29.02584 | 160.97815 | 30960 ft | 544 kts | 52° |
| 2026-04-20 04:27 | -28.98420 | 161.05009 | 30939 ft | 542 kts | 52° |
| 2026-04-20 04:28 | -28.94261 | 161.12181 | 30958 ft | 545 kts | 52° |
| 2026-04-20 04:28 | -28.90091 | 161.19360 | 30935 ft | 541 kts | 52° |
| 2026-04-20 04:29 | -28.85918 | 161.26531 | 30935 ft | 547 kts | 52° |
| 2026-04-20 04:29 | -28.81736 | 161.33708 | 30987 ft | 544 kts | 52° |
| 2026-04-20 04:30 | -28.77534 | 161.40904 | 30963 ft | 546 kts | 52° |
| 2026-04-20 04:30 | -28.73324 | 161.48103 | 30988 ft | 545 kts | 52° |
| 2026-04-20 04:31 | -28.69149 | 161.55232 | 30960 ft | 544 kts | 51° |
| 2026-04-20 04:31 | -28.64911 | 161.62451 | 30957 ft | 547 kts | 51° |
| 2026-04-20 04:32 | -28.60696 | 161.69623 | 30968 ft | 547 kts | 51° |
| 2026-04-20 04:32 | -28.56478 | 161.76785 | 30942 ft | 546 kts | 51° |
| 2026-04-20 04:33 | -28.52243 | 161.83966 | 30941 ft | 546 kts | 51° |
| 2026-04-20 04:33 | -28.47993 | 161.91161 | 30926 ft | 546 kts | 51° |
| 2026-04-20 04:34 | -28.43746 | 161.98335 | 30947 ft | 547 kts | 51° |
| 2026-04-20 04:34 | -28.39500 | 162.05496 | 30943 ft | 547 kts | 51° |
| 2026-04-20 04:35 | -28.35250 | 162.12656 | 30942 ft | 546 kts | 50° |
| 2026-04-20 04:35 | -28.30980 | 162.19833 | 30920 ft | 548 kts | 50° |
| 2026-04-20 04:36 | -28.24566 | 162.30594 | 30942 ft | 546 kts | 50° |
| 2026-04-20 04:37 | -28.20259 | 162.37802 | 30941 ft | 550 kts | 50° |
| 2026-04-20 04:37 | -28.15949 | 162.45006 | 30933 ft | 550 kts | 50° |
| 2026-04-20 04:38 | -28.11675 | 162.52139 | 30944 ft | 548 kts | 50° |
| 2026-04-20 04:38 | -28.07395 | 162.59267 | 30951 ft | 549 kts | 50° |
| 2026-04-20 04:39 | -28.03107 | 162.66400 | 30955 ft | 548 kts | 49° |
| 2026-04-20 04:39 | -27.98799 | 162.73550 | 30921 ft | 549 kts | 49° |
| 2026-04-20 04:40 | -27.94495 | 162.80682 | 30921 ft | 549 kts | 49° |
| 2026-04-20 04:40 | -27.90184 | 162.87817 | 30924 ft | 549 kts | 49° |
| 2026-04-20 04:41 | -27.85886 | 162.94917 | 30935 ft | 550 kts | 49° |
| 2026-04-20 04:41 | -27.81568 | 163.02040 | 30905 ft | 548 kts | 49° |
| 2026-04-20 04:42 | -27.77252 | 163.09143 | 30932 ft | 551 kts | 48° |
| 2026-04-20 04:42 | -27.72916 | 163.16266 | 30938 ft | 551 kts | 49° |
| 2026-04-20 04:43 | -27.68594 | 163.23358 | 30918 ft | 550 kts | 48° |
| 2026-04-20 04:43 | -27.64228 | 163.30507 | 31005 ft | 554 kts | 48° |
| 2026-04-20 04:43 | -27.62058 | 163.34056 | 31251 ft | 555 kts | 47° |
| 2026-04-20 04:44 | -27.59882 | 163.37616 | 31747 ft | 552 kts | 47° |
| 2026-04-20 04:44 | -27.57697 | 163.41185 | 32156 ft | 551 kts | 47° |
| 2026-04-20 04:44 | -27.55532 | 163.44719 | 32532 ft | 550 kts | 47° |
| 2026-04-20 04:44 | -27.53349 | 163.48277 | 32786 ft | 551 kts | 46° |
| 2026-04-20 04:45 | -27.51162 | 163.51837 | 32932 ft | 554 kts | 46° |
| 2026-04-20 04:45 | -27.46769 | 163.58981 | 32954 ft | 558 kts | 46° |
| 2026-04-20 04:46 | -27.42368 | 163.66139 | 32940 ft | 552 kts | 46° |
| 2026-04-20 04:46 | -27.37981 | 163.73251 | 32896 ft | 555 kts | 45° |
| 2026-04-20 04:47 | -27.33592 | 163.80359 | 32921 ft | 557 kts | 45° |
| 2026-04-20 04:47 | -27.29151 | 163.87538 | 32867 ft | 558 kts | 45° |
| 2026-04-20 04:48 | -27.24748 | 163.94646 | 32898 ft | 558 kts | 45° |
| 2026-04-20 04:48 | -27.20323 | 164.01775 | 32903 ft | 559 kts | 45° |
| 2026-04-20 04:49 | -27.15893 | 164.08907 | 32932 ft | 556 kts | 45° |
| 2026-04-20 04:49 | -27.11452 | 164.16038 | 32939 ft | 556 kts | 45° |
| 2026-04-20 04:50 | -27.07034 | 164.23123 | 32910 ft | 558 kts | 45° |
| 2026-04-20 04:50 | -27.02569 | 164.30272 | 32894 ft | 557 kts | 44° |
| 2026-04-20 04:51 | -26.98132 | 164.37367 | 32925 ft | 557 kts | 44° |
| 2026-04-20 04:51 | -26.93688 | 164.44457 | 32927 ft | 560 kts | 45° |
| 2026-04-20 04:52 | -26.89186 | 164.51633 | 32944 ft | 557 kts | 44° |
| 2026-04-20 04:52 | -26.84738 | 164.58711 | 32933 ft | 556 kts | 44° |
| 2026-04-20 04:53 | -26.80261 | 164.65819 | 32944 ft | 560 kts | 44° |
| 2026-04-20 04:53 | -26.75910 | 164.72725 | 32924 ft | 556 kts | 44° |
| 2026-04-20 04:54 | -26.71437 | 164.79803 | 32899 ft | 561 kts | 43° |
| 2026-04-20 04:54 | -26.67002 | 164.86816 | 32922 ft | 561 kts | 44° |
| 2026-04-20 04:55 | -26.62491 | 164.93938 | 32929 ft | 561 kts | 43° |
| 2026-04-20 04:55 | -26.57966 | 165.01071 | 32897 ft | 559 kts | 44° |
| 2026-04-20 04:56 | -26.53477 | 165.08133 | 32917 ft | 562 kts | 43° |
| 2026-04-20 04:56 | -26.48953 | 165.15242 | 32931 ft | 561 kts | 44° |
| 2026-04-20 04:57 | -26.44424 | 165.22343 | 32925 ft | 564 kts | 44° |
| 2026-04-20 04:57 | -26.39891 | 165.29448 | 32932 ft | 560 kts | 43° |
| 2026-04-20 04:58 | -26.35367 | 165.36520 | 32943 ft | 565 kts | 43° |
| 2026-04-20 04:58 | -26.30805 | 165.43643 | 32923 ft | 564 kts | 44° |
| 2026-04-20 04:59 | -26.26280 | 165.50703 | 32940 ft | 561 kts | 44° |
| 2026-04-20 04:59 | -26.21727 | 165.57785 | 32920 ft | 565 kts | 44° |
| 2026-04-20 05:00 | -26.17158 | 165.64894 | 32919 ft | 558 kts | 44° |
| 2026-04-20 05:00 | -26.12616 | 165.71936 | 32918 ft | 562 kts | 43° |
| 2026-04-20 05:01 | -26.08077 | 165.78967 | 32911 ft | 564 kts | 43° |
| 2026-04-20 05:01 | -26.03483 | 165.86072 | 32904 ft | 565 kts | 43° |
| 2026-04-20 05:02 | -25.98942 | 165.93095 | 32906 ft | 561 kts | 43° |
| 2026-04-20 05:02 | -25.94342 | 166.00186 | 32887 ft | 565 kts | 43° |
| 2026-04-20 05:03 | -25.89748 | 166.07259 | 32915 ft | 564 kts | 43° |
| 2026-04-20 05:03 | -25.85169 | 166.14307 | 32936 ft | 560 kts | 43° |
| 2026-04-20 05:04 | -25.80589 | 166.21330 | 32902 ft | 566 kts | 43° |
| 2026-04-20 05:04 | -25.76022 | 166.28340 | 32933 ft | 558 kts | 43° |
| 2026-04-20 05:05 | -25.71437 | 166.35352 | 32926 ft | 562 kts | 43° |
| 2026-04-20 05:05 | -25.66836 | 166.42383 | 32917 ft | 563 kts | 43° |
| 2026-04-20 05:06 | -25.62260 | 166.49367 | 32919 ft | 563 kts | 43° |
| 2026-04-20 05:06 | -25.57649 | 166.56392 | 32947 ft | 564 kts | 43° |
| 2026-04-20 05:07 | -25.53070 | 166.63367 | 32916 ft | 561 kts | 43° |
| 2026-04-20 05:07 | -25.48455 | 166.70373 | 32907 ft | 560 kts | 43° |
| 2026-04-20 05:08 | -25.43855 | 166.77350 | 32915 ft | 563 kts | 42° |
| 2026-04-20 05:08 | -25.39286 | 166.84274 | 32907 ft | 561 kts | 42° |
| 2026-04-20 05:09 | -25.34659 | 166.91270 | 32901 ft | 562 kts | 43° |
| 2026-04-20 05:09 | -25.30073 | 166.98204 | 32903 ft | 555 kts | 43° |
| 2026-04-20 05:10 | -25.25477 | 167.05125 | 32905 ft | 562 kts | 43° |
| 2026-04-20 05:10 | -25.20879 | 167.12053 | 32893 ft | 561 kts | 43° |
| 2026-04-20 05:11 | -25.16262 | 167.18999 | 32927 ft | 557 kts | 43° |
| 2026-04-20 05:11 | -25.11655 | 167.25911 | 32908 ft | 562 kts | 42° |
| 2026-04-20 05:12 | -25.07053 | 167.32814 | 32910 ft | 560 kts | 43° |
| 2026-04-20 05:12 | -25.02445 | 167.39712 | 32920 ft | 561 kts | 43° |
| 2026-04-20 05:13 | -24.97816 | 167.46634 | 32920 ft | 559 kts | 43° |
| 2026-04-20 05:13 | -24.93206 | 167.53516 | 32930 ft | 559 kts | 43° |
| 2026-04-20 05:14 | -24.88590 | 167.60396 | 32926 ft | 558 kts | 43° |
| 2026-04-20 05:14 | -24.83956 | 167.67293 | 32889 ft | 561 kts | 43° |
| 2026-04-20 05:15 | -24.79317 | 167.74193 | 32878 ft | 556 kts | 42° |
| 2026-04-20 05:15 | -24.74739 | 167.80988 | 32904 ft | 555 kts | 42° |
| 2026-04-20 05:16 | -24.70126 | 167.87819 | 32891 ft | 556 kts | 43° |
| 2026-04-20 05:16 | -24.65512 | 167.94644 | 32896 ft | 557 kts | 43° |
| 2026-04-20 05:17 | -24.60925 | 168.01424 | 32887 ft | 552 kts | 43° |
| 2026-04-20 05:17 | -24.56329 | 168.08202 | 32887 ft | 555 kts | 43° |
| 2026-04-20 05:18 | -24.51739 | 168.14967 | 32909 ft | 551 kts | 43° |
| 2026-04-20 05:18 | -24.47157 | 168.21703 | 32900 ft | 555 kts | 43° |
| 2026-04-20 05:19 | -24.42567 | 168.28451 | 32900 ft | 552 kts | 43° |
| 2026-04-20 05:19 | -24.37937 | 168.35242 | 32900 ft | 554 kts | 43° |
| 2026-04-20 05:20 | -24.33363 | 168.41946 | 32910 ft | 552 kts | 43° |
| 2026-04-20 05:20 | -24.28720 | 168.48740 | 32912 ft | 550 kts | 43° |
| 2026-04-20 05:21 | -24.24152 | 168.55414 | 32917 ft | 551 kts | 43° |
| 2026-04-20 05:21 | -24.19626 | 168.62021 | 32920 ft | 548 kts | 43° |
| 2026-04-20 05:22 | -24.15061 | 168.68671 | 32891 ft | 549 kts | 42° |
| 2026-04-20 05:22 | -24.10468 | 168.75356 | 32896 ft | 548 kts | 43° |
| 2026-04-20 05:23 | -24.05918 | 168.81970 | 32898 ft | 544 kts | 42° |
| 2026-04-20 05:23 | -24.01364 | 168.88580 | 32912 ft | 544 kts | 42° |
| 2026-04-20 05:24 | -23.96800 | 168.95192 | 32901 ft | 546 kts | 43° |
| 2026-04-20 05:24 | -23.92236 | 169.01800 | 32895 ft | 542 kts | 43° |
| 2026-04-20 05:25 | -23.87699 | 169.08362 | 32914 ft | 541 kts | 42° |
| 2026-04-20 05:25 | -23.83122 | 169.14964 | 32901 ft | 543 kts | 43° |
| 2026-04-20 05:26 | -23.78585 | 169.21509 | 32905 ft | 543 kts | 42° |
| 2026-04-20 05:26 | -23.74019 | 169.28081 | 32896 ft | 542 kts | 43° |
| 2026-04-20 05:27 | -23.69472 | 169.34622 | 32900 ft | 539 kts | 43° |
| 2026-04-20 05:27 | -23.65043 | 169.40987 | 32909 ft | 535 kts | 43° |
| 2026-04-20 05:28 | -23.60521 | 169.47467 | 32911 ft | 539 kts | 43° |
| 2026-04-20 05:28 | -23.55998 | 169.53949 | 32912 ft | 537 kts | 43° |
| 2026-04-20 05:29 | -23.51457 | 169.60446 | 32915 ft | 535 kts | 43° |
| 2026-04-20 05:29 | -23.46972 | 169.66855 | 32892 ft | 534 kts | 42° |
| 2026-04-20 05:30 | -23.42431 | 169.73332 | 32873 ft | 537 kts | 43° |
| 2026-04-20 05:30 | -23.37951 | 169.79723 | 32876 ft | 532 kts | 43° |
| 2026-04-20 05:31 | -23.33472 | 169.86098 | 32898 ft | 531 kts | 43° |
| 2026-04-20 05:31 | -23.28950 | 169.92517 | 32877 ft | 538 kts | 42° |
| 2026-04-20 05:32 | -23.24441 | 169.98929 | 32889 ft | 531 kts | 43° |
| 2026-04-20 05:32 | -23.19950 | 170.05296 | 32893 ft | 532 kts | 43° |
| 2026-04-20 05:33 | -23.15435 | 170.11688 | 32886 ft | 533 kts | 43° |
| 2026-04-20 05:33 | -23.10960 | 170.18022 | 32886 ft | 532 kts | 43° |
| 2026-04-20 05:34 | -23.06424 | 170.24429 | 32890 ft | 532 kts | 43° |
| 2026-04-20 05:34 | -22.99688 | 170.33931 | 32883 ft | 532 kts | 43° |
| 2026-04-20 05:35 | -22.95173 | 170.40291 | 32891 ft | 531 kts | 43° |
| 2026-04-20 05:35 | -22.90651 | 170.46651 | 32890 ft | 535 kts | 43° |
| 2026-04-20 05:36 | -22.86089 | 170.53064 | 32907 ft | 531 kts | 44° |
| 2026-04-20 05:36 | -22.81626 | 170.59329 | 32899 ft | 529 kts | 43° |
| 2026-04-20 05:37 | -22.77117 | 170.65643 | 32900 ft | 532 kts | 43° |
| 2026-04-20 05:37 | -22.72593 | 170.71980 | 32888 ft | 528 kts | 43° |
| 2026-04-20 05:38 | -22.68081 | 170.78287 | 32906 ft | 532 kts | 43° |
| 2026-04-20 05:38 | -22.63555 | 170.84607 | 32915 ft | 533 kts | 43° |
| 2026-04-20 05:39 | -22.59043 | 170.90904 | 32912 ft | 531 kts | 43° |
| 2026-04-20 05:39 | -22.54514 | 170.97215 | 32906 ft | 528 kts | 44° |
| 2026-04-20 05:40 | -22.49964 | 171.03543 | 32915 ft | 530 kts | 43° |
| 2026-04-20 05:40 | -22.45447 | 171.09822 | 32905 ft | 530 kts | 44° |
| 2026-04-20 05:41 | -22.40950 | 171.16067 | 32909 ft | 526 kts | 43° |
| 2026-04-20 05:41 | -22.36415 | 171.22353 | 32913 ft | 530 kts | 44° |
| 2026-04-20 05:42 | -22.31906 | 171.28598 | 32908 ft | 529 kts | 44° |
| 2026-04-20 05:42 | -22.27391 | 171.34845 | 32902 ft | 527 kts | 44° |
| 2026-04-20 05:43 | -22.22887 | 171.41067 | 32900 ft | 527 kts | 44° |
| 2026-04-20 05:43 | -22.18367 | 171.47304 | 32904 ft | 530 kts | 44° |
| 2026-04-20 05:44 | -22.13837 | 171.53551 | 32901 ft | 525 kts | 44° |
| 2026-04-20 05:44 | -22.09317 | 171.59772 | 32903 ft | 527 kts | 44° |
| 2026-04-20 05:45 | -22.04817 | 171.65961 | 32893 ft | 524 kts | 44° |
| 2026-04-20 05:45 | -22.00317 | 171.72136 | 32879 ft | 528 kts | 44° |
| 2026-04-20 05:46 | -21.95783 | 171.78355 | 32880 ft | 525 kts | 44° |
| 2026-04-20 05:46 | -21.91282 | 171.84521 | 32888 ft | 523 kts | 44° |
| 2026-04-20 05:47 | -21.86799 | 171.90654 | 32895 ft | 526 kts | 44° |
| 2026-04-20 05:47 | -21.82262 | 171.96855 | 32893 ft | 526 kts | 44° |
| 2026-04-20 05:48 | -21.77751 | 172.03014 | 32884 ft | 525 kts | 44° |
| 2026-04-20 05:48 | -21.73229 | 172.09181 | 32893 ft | 524 kts | 44° |
| 2026-04-20 05:49 | -21.68718 | 172.15323 | 32878 ft | 524 kts | 44° |
| 2026-04-20 05:49 | -21.64205 | 172.21464 | 32893 ft | 525 kts | 44° |
| 2026-04-20 05:50 | -21.59675 | 172.27620 | 32890 ft | 524 kts | 44° |
| 2026-04-20 05:50 | -21.55126 | 172.33795 | 32896 ft | 524 kts | 44° |
| 2026-04-20 05:51 | -21.50600 | 172.39932 | 32896 ft | 524 kts | 45° |
| 2026-04-20 05:51 | -21.46094 | 172.46036 | 32895 ft | 524 kts | 44° |
| 2026-04-20 05:52 | -21.41566 | 172.52162 | 32882 ft | 523 kts | 45° |
| 2026-04-20 05:52 | -21.37037 | 172.58283 | 32874 ft | 524 kts | 45° |
| 2026-04-20 05:53 | -21.32501 | 172.64406 | 32889 ft | 523 kts | 44° |
| 2026-04-20 05:53 | -21.27951 | 172.70543 | 32854 ft | 522 kts | 44° |
| 2026-04-20 05:54 | -21.23434 | 172.76623 | 32868 ft | 525 kts | 44° |
| 2026-04-20 05:54 | -21.18870 | 172.82767 | 32864 ft | 524 kts | 45° |
| 2026-04-20 05:55 | -21.14315 | 172.88888 | 32859 ft | 522 kts | 44° |
| 2026-04-20 05:55 | -21.09777 | 172.94981 | 32863 ft | 522 kts | 44° |
| 2026-04-20 05:56 | -21.05255 | 173.01044 | 32866 ft | 524 kts | 45° |
| 2026-04-20 05:56 | -21.00698 | 173.07150 | 32870 ft | 522 kts | 45° |
| 2026-04-20 05:57 | -20.96182 | 173.13193 | 32879 ft | 522 kts | 45° |
| 2026-04-20 05:57 | -20.91625 | 173.19284 | 32890 ft | 522 kts | 45° |
| 2026-04-20 05:58 | -20.87096 | 173.25333 | 32899 ft | 521 kts | 45° |
| 2026-04-20 05:58 | -20.82560 | 173.31383 | 32889 ft | 520 kts | 45° |
| 2026-04-20 05:59 | -20.78026 | 173.37422 | 32897 ft | 522 kts | 45° |
| 2026-04-20 05:59 | -20.73478 | 173.43477 | 32892 ft | 522 kts | 45° |
| 2026-04-20 06:00 | -20.68931 | 173.49522 | 32897 ft | 522 kts | 45° |
| 2026-04-20 06:00 | -20.64416 | 173.55521 | 32899 ft | 519 kts | 45° |
| 2026-04-20 06:01 | -20.59883 | 173.61533 | 32893 ft | 520 kts | 45° |
| 2026-04-20 06:01 | -20.55329 | 173.67569 | 32871 ft | 519 kts | 45° |
| 2026-04-20 06:02 | -20.50797 | 173.73569 | 32873 ft | 520 kts | 45° |
| 2026-04-20 06:02 | -20.46287 | 173.79533 | 32883 ft | 521 kts | 45° |
| 2026-04-20 06:03 | -20.41746 | 173.85533 | 32881 ft | 520 kts | 45° |
| 2026-04-20 06:03 | -20.37208 | 173.91522 | 32885 ft | 521 kts | 45° |
| 2026-04-20 06:04 | -20.32658 | 173.97522 | 32890 ft | 521 kts | 45° |
| 2026-04-20 06:04 | -20.28089 | 174.03540 | 32886 ft | 520 kts | 45° |
| 2026-04-20 06:05 | -20.23537 | 174.09529 | 32875 ft | 520 kts | 45° |
| 2026-04-20 06:05 | -20.19006 | 174.15483 | 32874 ft | 522 kts | 46° |
| 2026-04-20 06:06 | -20.14431 | 174.21492 | 32884 ft | 520 kts | 46° |
| 2026-04-20 06:06 | -20.09887 | 174.27452 | 32879 ft | 519 kts | 46° |
| 2026-04-20 06:07 | -20.05326 | 174.33429 | 32874 ft | 518 kts | 46° |
| 2026-04-20 06:07 | -20.00789 | 174.39368 | 32874 ft | 518 kts | 46° |
| 2026-04-20 06:08 | -19.96253 | 174.45299 | 32870 ft | 519 kts | 46° |
| 2026-04-20 06:08 | -19.91674 | 174.51280 | 32872 ft | 519 kts | 46° |
| 2026-04-20 06:09 | -19.87100 | 174.57250 | 32878 ft | 521 kts | 46° |
| 2026-04-20 06:09 | -19.82562 | 174.63167 | 32877 ft | 519 kts | 46° |
| 2026-04-20 06:10 | -19.77992 | 174.69119 | 32867 ft | 518 kts | 46° |
| 2026-04-20 06:10 | -19.73425 | 174.75061 | 32866 ft | 518 kts | 46° |
| 2026-04-20 06:11 | -19.68870 | 174.80981 | 32867 ft | 518 kts | 46° |
| 2026-04-20 06:11 | -19.64316 | 174.86894 | 32869 ft | 518 kts | 46° |
| 2026-04-20 06:12 | -19.59758 | 174.92809 | 32869 ft | 519 kts | 46° |
| 2026-04-20 06:12 | -19.55195 | 174.98721 | 32867 ft | 516 kts | 46° |
| 2026-04-20 06:13 | -19.50651 | 175.04604 | 32865 ft | 517 kts | 46° |
| 2026-04-20 06:13 | -19.46090 | 175.10503 | 32872 ft | 514 kts | 46° |
| 2026-04-20 06:14 | -19.41538 | 175.16383 | 32867 ft | 517 kts | 46° |
| 2026-04-20 06:14 | -19.37015 | 175.22224 | 32866 ft | 516 kts | 46° |
| 2026-04-20 06:15 | -19.32429 | 175.28136 | 32854 ft | 517 kts | 46° |
| 2026-04-20 06:15 | -19.27869 | 175.34013 | 32856 ft | 517 kts | 46° |
| 2026-04-20 06:16 | -19.23293 | 175.39903 | 32846 ft | 514 kts | 47° |
| 2026-04-20 06:16 | -19.18779 | 175.45708 | 32850 ft | 514 kts | 47° |
| 2026-04-20 06:17 | -19.14250 | 175.51527 | 32848 ft | 515 kts | 46° |
| 2026-04-20 06:17 | -19.09673 | 175.57402 | 32848 ft | 513 kts | 47° |
| 2026-04-20 06:18 | -19.05142 | 175.63211 | 32849 ft | 514 kts | 47° |
| 2026-04-20 06:18 | -19.00591 | 175.69043 | 32845 ft | 512 kts | 46° |
| 2026-04-20 06:19 | -18.96053 | 175.74850 | 32845 ft | 513 kts | 46° |
| 2026-04-20 06:19 | -18.91513 | 175.80656 | 32845 ft | 510 kts | 46° |
| 2026-04-20 06:20 | -18.86982 | 175.86444 | 32844 ft | 514 kts | 47° |
| 2026-04-20 06:20 | -18.82478 | 175.92194 | 32861 ft | 509 kts | 47° |
| 2026-04-20 06:21 | -18.77929 | 175.97994 | 32846 ft | 513 kts | 47° |
| 2026-04-20 06:21 | -18.73396 | 176.03769 | 32842 ft | 509 kts | 47° |
| 2026-04-20 06:22 | -18.68879 | 176.09512 | 32840 ft | 510 kts | 47° |
| 2026-04-20 06:22 | -18.64359 | 176.15254 | 32848 ft | 508 kts | 47° |
| 2026-04-20 06:23 | -18.59827 | 176.21005 | 32850 ft | 508 kts | 47° |
| 2026-04-20 06:23 | -18.55289 | 176.26756 | 32856 ft | 510 kts | 47° |
| 2026-04-20 06:24 | -18.50752 | 176.32503 | 32857 ft | 508 kts | 47° |
| 2026-04-20 06:24 | -18.46213 | 176.38246 | 32851 ft | 510 kts | 47° |
| 2026-04-20 06:25 | -18.41679 | 176.43980 | 32859 ft | 508 kts | 47° |
| 2026-04-20 06:25 | -18.37151 | 176.49699 | 32856 ft | 508 kts | 47° |
| 2026-04-20 06:26 | -18.32627 | 176.55409 | 32849 ft | 508 kts | 47° |
| 2026-04-20 06:26 | -18.28082 | 176.61139 | 32856 ft | 508 kts | 47° |
| 2026-04-20 06:27 | -18.23551 | 176.66846 | 32837 ft | 509 kts | 47° |
| 2026-04-20 06:27 | -18.19041 | 176.72523 | 32847 ft | 508 kts | 47° |
| 2026-04-20 06:28 | -18.14500 | 176.78233 | 32853 ft | 509 kts | 47° |
| 2026-04-20 06:28 | -18.09961 | 176.83937 | 32873 ft | 508 kts | 47° |
| 2026-04-20 06:29 | -18.05418 | 176.89641 | 32866 ft | 509 kts | 47° |
| 2026-04-20 06:29 | -18.00878 | 176.95337 | 32869 ft | 509 kts | 47° |
| 2026-04-20 06:30 | -17.96324 | 177.01045 | 32865 ft | 508 kts | 47° |
| 2026-04-20 06:30 | -17.91766 | 177.06752 | 32869 ft | 509 kts | 47° |
| 2026-04-20 06:31 | -17.87213 | 177.12450 | 32874 ft | 509 kts | 47° |
| 2026-04-20 06:31 | -17.82646 | 177.18158 | 32892 ft | 508 kts | 47° |
| 2026-04-20 06:32 | -17.78093 | 177.23846 | 32892 ft | 507 kts | 47° |
| 2026-04-20 06:32 | -17.73574 | 177.29485 | 32887 ft | 507 kts | 47° |
| 2026-04-20 06:33 | -17.69041 | 177.35138 | 32895 ft | 507 kts | 47° |
| 2026-04-20 06:33 | -17.64498 | 177.40802 | 32894 ft | 508 kts | 48° |
| 2026-04-20 06:34 | -17.59952 | 177.46549 | 32894 ft | 509 kts | 48° |
| 2026-04-20 06:35 | -17.53173 | 177.55115 | 32881 ft | 508 kts | 48° |
| 2026-04-20 06:35 | -17.48667 | 177.60800 | 32886 ft | 508 kts | 48° |
| 2026-04-20 06:36 | -17.44142 | 177.66504 | 32882 ft | 508 kts | 47° |
| 2026-04-20 06:36 | -17.39627 | 177.72188 | 32883 ft | 508 kts | 48° |
| 2026-04-20 06:37 | -17.35085 | 177.77902 | 32873 ft | 507 kts | 48° |
| 2026-04-20 06:37 | -17.30587 | 177.83556 | 32874 ft | 507 kts | 48° |
| 2026-04-20 06:38 | -17.26074 | 177.89224 | 32854 ft | 506 kts | 48° |
| 2026-04-20 06:38 | -17.21579 | 177.94864 | 32877 ft | 509 kts | 47° |
| 2026-04-20 06:39 | -17.17013 | 178.00589 | 32874 ft | 507 kts | 48° |
| 2026-04-20 06:39 | -17.12568 | 178.06157 | 32891 ft | 508 kts | 48° |
| 2026-04-20 06:40 | -17.08036 | 178.11832 | 32866 ft | 507 kts | 48° |
| 2026-04-20 06:40 | -17.03515 | 178.17487 | 32866 ft | 506 kts | 48° |
| 2026-04-20 06:41 | -16.99001 | 178.23129 | 32869 ft | 507 kts | 48° |
| 2026-04-20 06:41 | -16.94460 | 178.28798 | 32869 ft | 507 kts | 48° |
| 2026-04-20 06:42 | -16.89939 | 178.34439 | 32867 ft | 508 kts | 48° |
| 2026-04-20 06:42 | -16.85412 | 178.40083 | 32872 ft | 507 kts | 48° |
| 2026-04-20 06:43 | -16.80877 | 178.45732 | 32873 ft | 507 kts | 48° |
| 2026-04-20 06:43 | -16.76340 | 178.51379 | 32875 ft | 508 kts | 48° |
| 2026-04-20 06:44 | -16.71825 | 178.56995 | 32882 ft | 507 kts | 48° |
| 2026-04-20 06:44 | -16.67301 | 178.62617 | 32886 ft | 505 kts | 48° |
| 2026-04-20 06:45 | -16.62769 | 178.68243 | 32883 ft | 506 kts | 48° |
| 2026-04-20 06:45 | -16.58214 | 178.73895 | 32880 ft | 506 kts | 48° |
| 2026-04-20 06:46 | -16.53673 | 178.79475 | 32875 ft | 507 kts | 48° |
| 2026-04-20 06:46 | -16.49081 | 178.85109 | 32869 ft | 507 kts | 48° |
| 2026-04-20 06:47 | -16.44539 | 178.90678 | 32865 ft | 507 kts | 48° |
| 2026-04-20 06:47 | -16.39955 | 178.96295 | 32883 ft | 507 kts | 48° |
| 2026-04-20 06:48 | -16.35409 | 179.01862 | 32882 ft | 507 kts | 48° |
| 2026-04-20 06:48 | -16.30808 | 179.07492 | 32875 ft | 506 kts | 48° |
| 2026-04-20 06:49 | -16.26255 | 179.13058 | 32887 ft | 507 kts | 48° |
| 2026-04-20 06:49 | -16.21697 | 179.18626 | 32903 ft | 507 kts | 48° |
| 2026-04-20 06:50 | -16.17081 | 179.24263 | 32886 ft | 507 kts | 48° |
| 2026-04-20 06:50 | -16.12517 | 179.29829 | 32903 ft | 507 kts | 48° |
| 2026-04-20 06:51 | -16.07941 | 179.35408 | 32889 ft | 506 kts | 48° |
| 2026-04-20 06:51 | -16.03374 | 179.40970 | 32898 ft | 505 kts | 48° |
| 2026-04-20 06:52 | -15.98780 | 179.46561 | 32896 ft | 506 kts | 48° |
| 2026-04-20 06:52 | -15.94197 | 179.52135 | 32887 ft | 506 kts | 48° |
| 2026-04-20 06:53 | -15.89640 | 179.57671 | 32891 ft | 507 kts | 48° |
| 2026-04-20 06:53 | -15.85039 | 179.63257 | 32882 ft | 508 kts | 48° |
| 2026-04-20 06:54 | -15.80422 | 179.68858 | 32900 ft | 506 kts | 48° |
| 2026-04-20 06:54 | -15.75865 | 179.74383 | 32889 ft | 505 kts | 48° |